Time;durP1;ratioP1;P1;durP2;ratioP2;P2;SDS_P1;SDS_P2;PMS_P1;PMS_P2;Temp;Humidity;BMP_temperature;BMP_pressure;BME280_temperature;BME280_humidity;BME280_pressure;Samples;Min_cycle;Max_cycle;Signal;HPM_P1;HPM_P2
2023/01/17 00:10:17;;;;;;;8.77;5.95;;;;;;;2.59;100.00;97737.16;10499857;28;20047;-83
2023/01/17 00:15:18;;;;;;;5.82;5.30;;;;;;;2.63;100.00;97746.38;10501429;28;20036;-77
2023/01/17 01:34:04;;;;;;;6.67;4.07;;;;;;;2.14;100.00;97869.22;10456972;28;20511;-81
2023/01/17 01:39:04;;;;;;;6.70;3.40;;;;;;;2.25;100.00;97883.59;10452945;28;20051;-79
2023/01/17 01:44:41;;;;;;;15.77;5.50;;;;;;;2.32;100.00;97884.16;10498647;28;20044;-81
2023/01/17 01:49:41;;;;;;;6.53;3.85;;;;;;;2.39;100.00;97899.03;10498573;28;20035;-80
2023/01/17 01:54:53;;;;;;;6.70;4.45;;;;;;;2.43;100.00;97889.25;10502848;28;20066;-83
2023/01/17 01:59:56;;;;;;;9.20;4.40;;;;;;;2.51;100.00;97900.69;10506656;28;20040;-80
2023/01/17 02:04:57;;;;;;;6.60;3.90;;;;;;;2.53;100.00;97912.88;10505693;28;20048;-80
2023/01/17 02:09:57;;;;;;;3.55;3.20;;;;;;;2.43;100.00;97919.13;10471268;28;20056;-81
2023/01/17 02:14:58;;;;;;;5.20;3.25;;;;;;;2.38;100.00;97929.22;10504768;28;20045;-86
2023/01/17 02:20:07;;;;;;;4.80;3.33;;;;;;;2.36;100.00;97943.03;10487866;28;20504;-83
2023/01/17 02:25:23;;;;;;;16.97;5.03;;;;;;;2.23;100.00;97946.28;10505814;28;20086;-81
2023/01/17 02:30:34;;;;;;;4.80;3.07;;;;;;;2.16;100.00;97943.84;10506567;28;20090;-83
2023/01/17 02:35:56;;;;;;;9.93;3.40;;;;;;;2.17;100.00;97969.09;10488148;28;20101;-80
2023/01/17 02:41:04;;;;;;;4.73;3.27;;;;;;;2.20;100.00;97969.38;10504300;28;20079;-71
2023/01/17 02:46:04;;;;;;;5.63;3.53;;;;;;;2.13;100.00;97971.56;10488202;28;20032;-81
2023/01/17 02:51:14;;;;;;;5.10;3.38;;;;;;;2.26;100.00;97996.53;10506155;28;20033;-81
2023/01/17 02:56:56;;;;;;;5.57;3.50;;;;;;;2.27;100.00;98014.44;10505936;28;20040;-81
2023/01/17 03:02:20;;;;;;;7.97;3.78;;;;;;;2.25;100.00;98024.75;10503977;28;20052;-82
2023/01/17 03:07:23;;;;;;;8.20;4.40;;;;;;;2.24;100.00;98042.13;10497542;28;20074;-84
2023/01/17 03:12:28;;;;;;;19.40;5.10;;;;;;;2.20;100.00;98031.81;10486481;28;20040;-81
2023/01/17 03:17:31;;;;;;;7.20;3.93;;;;;;;2.18;100.00;98046.75;10504458;28;20032;-80
2023/01/17 03:22:31;;;;;;;14.23;4.57;;;;;;;2.16;100.00;98049.72;10503764;28;20040;-82
2023/01/17 03:27:32;;;;;;;5.13;2.40;;;;;;;2.16;100.00;98049.72;10503593;28;20041;-82
2023/01/17 03:32:32;;;;;;;5.05;2.80;;;;;;;2.13;100.00;98036.69;10489989;28;20089;-81
2023/01/17 03:37:33;;;;;;;10.45;3.08;;;;;;;2.09;100.00;98046.47;10461746;28;20409;-81
2023/01/17 03:42:33;;;;;;;9.43;3.33;;;;;;;2.05;100.00;98045.38;10461881;28;20488;-81
2023/01/17 03:47:34;;;;;;;5.93;2.00;;;;;;;2.07;100.00;98070.34;10460074;28;20342;-81
2023/01/17 03:52:35;;;;;;;4.73;2.67;;;;;;;2.06;100.00;98076.81;10459580;28;20056;-84
2023/01/17 03:57:35;;;;;;;11.23;3.00;;;;;;;2.07;100.00;98097.47;10459505;28;20037;-82
2023/01/17 04:02:36;;;;;;;13.13;3.90;;;;;;;2.07;100.00;98113.75;10460580;28;20037;-76
2023/01/17 04:07:36;;;;;;;7.73;2.63;;;;;;;1.97;100.00;98113.72;10484803;28;20048;-80
2023/01/17 04:12:37;;;;;;;10.33;2.60;;;;;;;1.95;100.00;98138.41;10502514;28;20028;-83
2023/01/17 04:17:37;;;;;;;11.13;3.40;;;;;;;1.83;100.00;98137.81;10501818;28;20029;-77
2023/01/17 04:22:38;;;;;;;9.10;3.70;;;;;;;1.81;100.00;98138.06;10483213;28;20040;-80
2023/01/17 04:27:38;;;;;;;2.83;2.53;;;;;;;1.74;100.00;98148.34;10501286;28;20442;-80
2023/01/17 04:32:39;;;;;;;8.40;3.05;;;;;;;1.67;100.00;98158.59;10481888;28;20551;-80
2023/01/17 04:37:39;;;;;;;7.83;3.20;;;;;;;1.66;100.00;98159.69;10459528;28;20780;-80
2023/01/17 04:42:40;;;;;;;10.73;3.17;;;;;;;1.60;100.00;98166.97;10459901;28;20033;-80
2023/01/17 04:47:40;;;;;;;11.20;4.50;;;;;;;0.39;100.00;97984.38;10441293;28;20045;-79
2023/01/17 04:52:40;;;;;;;6.10;3.30;;;;;;;1.46;100.00;98171.22;10457159;28;20208;-78
2023/01/17 04:57:41;;;;;;;10.02;4.03;;;;;;;1.32;100.00;98167.31;10470207;28;20110;-81
2023/01/17 05:02:41;;;;;;;5.67;3.50;;;;;;;1.13;100.00;98180.47;10500179;28;20067;-79
2023/01/17 05:07:42;;;;;;;15.48;4.25;;;;;;;0.95;100.00;98196.06;10498056;28;20036;-80
2023/01/17 05:12:44;;;;;;;6.90;3.87;;;;;;;0.88;100.00;98190.00;10493938;28;20117;-79
2023/01/17 05:17:44;;;;;;;10.50;4.40;;;;;;;0.84;100.00;98204.34;10439714;28;20037;-79
2023/01/17 05:22:46;;;;;;;7.20;3.27;;;;;;;0.84;100.00;98207.03;10458453;28;20067;-78
2023/01/17 05:27:46;;;;;;;9.47;3.33;;;;;;;0.79;100.00;98224.06;10457935;28;20067;-79
2023/01/17 05:32:48;;;;;;;6.47;3.07;;;;;;;0.82;100.00;98222.72;10457303;28;20094;-80
2023/01/17 05:37:49;;;;;;;9.10;3.37;;;;;;;0.80;100.00;98231.09;10457729;28;20036;-78
2023/01/17 05:42:50;;;;;;;10.27;3.23;;;;;;;0.80;100.00;98242.75;10456544;28;20090;-79
2023/01/17 05:47:52;;;;;;;5.90;2.90;;;;;;;0.80;100.00;98258.19;10457590;28;20090;-78
2023/01/17 05:52:57;;;;;;;9.60;2.60;;;;;;;0.86;100.00;98250.94;10439289;28;20048;-79
2023/01/17 05:57:57;;;;;;;11.33;2.37;;;;;;;0.80;100.00;98253.59;10439034;28;20041;-77
2023/01/17 06:02:58;;;;;;;10.77;3.08;;;;;;;0.79;100.00;98261.97;10454411;28;20487;-78
2023/01/17 06:07:59;;;;;;;2.50;2.20;;;;;;;0.66;100.00;98273.19;10459217;28;20037;-78
2023/01/17 06:13:11;;;;;;;6.10;2.30;;;;;;;0.58;100.00;98288.84;10498662;28;20120;-78
2023/01/17 06:18:12;;;;;;;7.23;2.23;;;;;;;0.36;100.00;98275.28;10498601;28;20036;-77
2023/01/17 06:23:13;;;;;;;10.83;2.37;;;;;;;0.39;100.00;98290.19;10496369;28;20048;-77
2023/01/17 06:28:15;;;;;;;5.93;1.97;;;;;;;0.35;100.00;98300.72;10496300;28;20036;-77
2023/01/17 06:33:16;;;;;;;3.17;1.87;;;;;;;0.25;100.00;98302.47;10496664;28;20385;-77
2023/01/17 06:38:16;;;;;;;4.70;2.43;;;;;;;0.19;100.00;98312.41;10480327;28;20037;-77
2023/01/17 06:43:17;;;;;;;7.70;2.87;;;;;;;0.10;100.00;98320.13;10481598;28;20048;-77
2023/01/17 06:48:17;;;;;;;9.00;3.40;;;;;;;-0.12;100.00;98316.56;10463568;28;20034;-77
2023/01/17 06:53:18;;;;;;;5.53;2.17;;;;;;;-0.22;100.00;98318.03;10463606;28;20060;-79
2023/01/17 06:58:18;;;;;;;7.27;2.30;;;;;;;-0.13;100.00;98334.66;10461644;28;20044;-77
2023/01/17 07:03:23;;;;;;;11.07;2.87;;;;;;;-0.06;100.00;98353.44;10461957;28;20041;-77
2023/01/17 07:08:24;;;;;;;5.30;2.43;;;;;;;-0.06;100.00;98358.84;10448935;28;20052;-78
2023/01/17 07:13:24;;;;;;;6.53;2.00;;;;;;;-0.09;100.00;98359.34;10504473;28;20044;-77
2023/01/17 07:18:25;;;;;;;3.17;1.93;;;;;;;-0.11;100.00;98372.28;10504097;28;20025;-77
2023/01/17 07:23:25;;;;;;;5.50;2.10;;;;;;;-0.24;100.00;98373.44;10502243;28;20063;-77
2023/01/17 07:28:26;;;;;;;3.80;2.37;;;;;;;-0.43;100.00;98372.84;10503660;28;20037;-77
2023/01/17 07:33:27;;;;;;;5.50;1.80;;;;;;;-0.45;100.00;98388.50;10504243;28;20043;-77
2023/01/17 07:38:27;;;;;;;3.23;1.90;;;;;;;-0.42;100.00;98399.63;10480468;28;20043;-77
2023/01/17 07:43:28;;;;;;;5.67;1.87;;;;;;;-0.44;100.00;98390.94;10459551;28;20204;-78
2023/01/17 07:48:29;;;;;;;12.60;2.10;;;;;;;-0.46;100.00;98403.06;10461144;28;20089;-78
2023/01/17 07:53:30;;;;;;;5.40;2.33;;;;;;;-0.57;100.00;98375.03;10458063;28;20082;-79
2023/01/17 07:58:31;;;;;;;3.50;2.50;;;;;;;-0.43;100.00;98399.88;10461072;28;20494;-78
2023/01/17 08:03:34;;;;;;;3.97;1.90;;;;;;;-0.35;100.00;98394.09;10459464;28;20043;-79
2023/01/17 08:08:35;;;;;;;7.13;2.53;;;;;;;-0.34;100.00;98394.91;10460336;28;20037;-77
2023/01/17 08:13:35;;;;;;;5.40;1.60;;;;;;;-0.41;100.00;98381.53;10460526;28;20037;-80
2023/01/17 08:18:36;;;;;;;4.17;1.80;;;;;;;-0.30;100.00;98418.50;10458676;28;20082;-79
2023/01/17 08:23:36;;;;;;;3.30;1.80;;;;;;;-0.22;100.00;98417.28;10458087;28;20075;-80
2023/01/17 08:28:37;;;;;;;6.20;2.47;;;;;;;-0.17;100.00;98441.69;10459993;28;20036;-82
2023/01/17 08:33:37;;;;;;;5.83;1.83;;;;;;;-0.12;100.00;98432.88;10458343;28;20041;-80
2023/01/17 08:38:37;;;;;;;2.93;1.57;;;;;;;-0.04;100.00;98446.00;10482358;28;20059;-79
2023/01/17 08:43:38;;;;;;;5.50;1.43;;;;;;;-0.04;100.00;98418.94;10498329;28;20482;-80
2023/01/17 08:48:38;;;;;;;2.57;1.40;;;;;;;0.11;100.00;98446.22;10500060;28;20028;-80
2023/01/17 08:53:39;;;;;;;3.67;1.47;;;;;;;0.15;100.00;98452.78;10500497;28;20041;-79
2023/01/17 08:58:40;;;;;;;4.23;1.40;;;;;;;0.20;100.00;98463.69;10500389;28;20059;-80
2023/01/17 09:03:41;;;;;;;3.33;1.20;;;;;;;0.13;100.00;98444.09;10469669;28;20041;-80
2023/01/17 09:08:45;;;;;;;6.77;1.80;;;;;;;0.27;100.00;98465.41;10427748;28;20040;-77
2023/01/17 09:13:46;;;;;;;3.43;1.87;;;;;;;0.30;100.00;98459.50;10497943;28;20052;-80
2023/01/17 09:18:46;;;;;;;5.60;1.70;;;;;;;0.36;100.00;98456.63;10498908;28;20037;-80
2023/01/17 09:23:47;;;;;;;6.77;1.60;;;;;;;0.44;100.00;98460.00;10499221;28;20033;-79
2023/01/17 09:28:47;;;;;;;2.70;2.20;;;;;;;0.48;100.00;98467.38;10499705;28;20040;-81
2023/01/17 09:33:48;;;;;;;7.30;2.20;;;;;;;-0.04;100.00;98375.66;10497460;28;20037;-79
2023/01/17 09:38:53;;;;;;;3.00;1.50;;;;;;;0.73;100.00;98480.47;10439272;28;20036;-79
2023/01/17 09:43:58;;;;;;;6.97;2.00;;;;;;;0.84;100.00;98480.59;10477978;28;20044;-79
2023/01/17 09:49:03;;;;;;;3.47;1.77;;;;;;;0.92;100.00;98483.69;10498392;28;20036;-80
2023/01/17 09:54:04;;;;;;;4.43;1.70;;;;;;;0.99;100.00;98499.78;10499075;28;20457;-79
2023/01/17 09:59:29;;;;;;;3.23;1.47;;;;;;;1.09;100.00;98496.38;10497220;28;20032;-77
2023/01/17 10:04:42;;;;;;;3.80;1.43;;;;;;;1.07;100.00;98485.78;10473151;28;20264;-76
2023/01/17 10:10:27;;;;;;;6.37;1.47;;;;;;;1.28;100.00;98507.75;10472418;28;20047;-77
2023/01/17 10:15:39;;;;;;;4.13;1.93;;;;;;;1.35;100.00;98502.97;10477981;28;20120;-78
2023/01/17 10:20:46;;;;;;;7.13;2.40;;;;;;;1.48;100.00;98505.28;10482941;28;20123;-77
2023/01/17 10:25:47;;;;;;;6.97;1.30;;;;;;;1.54;100.00;98534.09;10484700;28;20037;-77
2023/01/17 10:30:53;;;;;;;5.47;1.40;;;;;;;1.34;100.00;98528.41;10481198;28;20029;-80
2023/01/17 10:35:56;;;;;;;9.07;2.42;;;;;;;1.40;100.00;98539.06;10482321;28;20036;-79
2023/01/17 10:41:07;;;;;;;9.43;2.20;;;;;;;1.64;100.00;98536.13;10481326;28;20045;-78
2023/01/17 10:46:20;;;;;;;2.13;1.05;;;;;;;1.81;100.00;98536.84;10449240;28;20045;-79
2023/01/17 10:51:41;;;;;;;6.00;1.10;;;;;;;2.02;100.00;98532.44;10481553;28;20043;-78
2023/01/17 10:56:42;;;;;;;6.20;1.00;;;;;;;2.16;100.00;98519.28;10483031;28;20052;-78
2023/01/17 11:01:42;;;;;;;1.67;0.77;;;;;;;2.25;100.00;98491.69;10484930;28;20037;-77
2023/01/17 11:06:46;;;;;;;5.32;1.65;;;;;;;2.51;100.00;98509.81;10502118;28;20044;-78
2023/01/17 11:11:48;;;;;;;7.40;1.38;;;;;;;2.59;100.00;98490.34;10487302;28;20056;-78
2023/01/17 11:17:03;;;;;;;1.13;0.63;;;;;;;2.84;100.00;98499.75;10467580;28;20047;-77
2023/01/17 11:22:05;;;;;;;6.05;0.77;;;;;;;2.98;100.00;98505.53;10479152;28;20040;-77
2023/01/17 11:27:06;;;;;;;2.53;0.90;;;;;;;3.17;100.00;98492.31;10469175;28;20075;-78
2023/01/17 11:32:33;;;;;;;2.65;0.82;;;;;;;3.31;100.00;98485.31;10465260;28;20040;-77
2023/01/17 11:37:34;;;;;;;6.90;1.00;;;;;;;3.30;100.00;98489.09;10497345;28;20025;-75
2023/01/17 11:42:37;;;;;;;1.20;0.65;;;;;;;3.61;100.00;98491.94;10497077;28;20037;-77
2023/01/17 11:47:38;;;;;;;4.13;1.30;;;;;;;3.73;100.00;98489.00;10458626;28;20052;-77
2023/01/17 11:52:38;;;;;;;6.43;1.08;;;;;;;3.93;100.00;98474.63;10460917;28;20052;-75
2023/01/17 11:57:39;;;;;;;3.13;1.10;;;;;;;4.23;100.00;98477.34;10459204;28;20033;-76
2023/01/17 12:03:01;;;;;;;2.15;1.20;;;;;;;4.09;100.00;98467.28;10459230;28;20037;-75
2023/01/17 12:08:08;;;;;;;2.28;0.47;;;;;;;4.25;100.00;98460.75;10461686;28;20067;-77
2023/01/17 12:19:14;;;;;;;4.20;0.80;;;;;;;4.16;100.00;98473.28;10479322;28;20055;-78
2023/01/17 12:24:40;;;;;;;8.40;0.65;;;;;;;4.15;100.00;98461.56;10479318;28;20045;-78
2023/01/17 12:30:14;;;;;;;1.42;0.55;;;;;;;4.18;100.00;98461.03;10481245;28;20045;-78
2023/01/17 12:35:17;;;;;;;4.45;0.90;;;;;;;4.17;100.00;98470.28;10478723;28;20571;-79
2023/01/17 12:40:29;;;;;;;8.18;0.80;;;;;;;4.00;100.00;98459.63;10477913;28;20044;-78
2023/01/17 12:45:48;;;;;;;2.85;0.60;;;;;;;4.10;100.00;98464.28;10498017;28;20060;-78
2023/01/17 12:51:05;;;;;;;5.90;0.95;;;;;;;4.64;100.00;98474.63;10476525;28;20055;-76
2023/01/17 12:56:07;;;;;;;;;;;;;;;4.71;100.00;98474.34;10480580;28;20060;-79
2023/01/17 13:01:30;;;;;;;2.70;0.70;;;;;;;4.74;100.00;98470.28;10498178;28;19979;-79
2023/01/17 13:06:43;;;;;;;5.03;0.90;;;;;;;4.49;100.00;98449.31;10499797;28;20049;-72
2023/01/17 13:11:54;;;;;;;3.38;1.10;;;;;;;4.76;100.00;98476.25;10499132;28;20041;-80
2023/01/17 13:17:14;;;;;;;2.25;0.60;;;;;;;5.19;100.00;98469.34;10498717;28;20048;-80
2023/01/17 13:22:16;;;;;;;8.68;1.42;;;;;;;5.49;100.00;98451.19;10496334;28;20075;-79
2023/01/17 13:27:32;;;;;;;4.50;1.15;;;;;;;5.97;100.00;98447.94;10479915;28;20036;-82
2023/01/17 13:33:10;;;;;;;1.40;0.60;;;;;;;5.87;100.00;98451.56;10497504;28;20029;-77
2023/01/17 13:38:28;;;;;;;;;;;;;;;6.36;100.00;98447.13;10468945;28;20381;-79
2023/01/17 13:43:32;;;;;;;2.75;0.50;;;;;;;5.84;100.00;98447.44;10499639;28;20402;-83
2023/01/17 13:48:37;;;;;;;3.78;0.98;;;;;;;5.24;100.00;98405.75;10496080;28;20031;-79
2023/01/17 13:53:37;;;;;;;3.25;0.70;;;;;;;5.11;100.00;98460.91;10496506;28;20037;-81
2023/01/17 13:58:46;;;;;;;3.58;0.88;;;;;;;4.83;100.00;98455.78;10499029;28;20040;-79
2023/01/17 14:03:49;;;;;;;2.38;0.95;;;;;;;4.66;100.00;98479.81;10498913;28;20052;-78
2023/01/17 14:08:49;;;;;;;1.95;0.80;;;;;;;4.73;100.00;98487.69;10492703;28;20041;-84
2023/01/17 14:13:50;;;;;;;3.25;0.60;;;;;;;4.75;100.00;98485.53;10456684;28;20037;-79
2023/01/17 14:18:51;;;;;;;1.27;0.43;;;;;;;4.47;100.00;98482.28;10456657;28;20029;-80
2023/01/17 14:24:05;;;;;;;2.10;0.60;;;;;;;4.21;100.00;98497.78;10438332;28;20056;-79
2023/01/17 14:29:39;;;;;;;1.10;0.50;;;;;;;4.03;100.00;98515.44;10454645;28;20033;-80
2023/01/17 14:34:42;;;;;;;4.60;1.08;;;;;;;3.98;100.00;98494.50;10456274;28;20037;-81
2023/01/17 14:39:44;;;;;;;4.05;0.60;;;;;;;4.06;100.00;98511.41;10437269;28;20029;-81
2023/01/17 14:44:49;;;;;;;2.90;0.70;;;;;;;3.93;100.00;98507.28;10456142;28;20044;-80
2023/01/17 14:50:29;;;;;;;1.65;0.50;;;;;;;3.79;100.00;98510.50;10454052;28;20614;-79
2023/01/17 14:55:29;;;;;;;3.50;0.52;;;;;;;3.44;100.00;98522.91;10437934;28;20097;-81
2023/01/17 15:00:32;;;;;;;1.15;0.50;;;;;;;3.23;100.00;98526.63;10485611;28;20033;-81
2023/01/17 15:05:33;;;;;;;3.95;1.05;;;;;;;2.99;100.00;98535.16;10504207;28;20041;-80
2023/01/17 15:10:33;;;;;;;2.53;1.10;;;;;;;2.78;100.00;98522.53;10483053;28;20416;-80
2023/01/17 15:15:37;;;;;;;8.68;1.45;;;;;;;2.66;100.00;98538.19;10461486;28;20029;-80
2023/01/17 15:20:37;;;;;;;1.05;0.70;;;;;;;2.47;100.00;98525.00;10463679;28;20404;-80
2023/01/17 15:25:38;;;;;;;0.63;0.57;;;;;;;2.40;100.00;98535.28;10460940;28;20051;-81
2023/01/17 15:31:18;;;;;;;2.57;1.47;;;;;;;2.35;100.00;98540.66;10443980;28;20037;-79
2023/01/17 15:36:46;;;;;;;5.20;0.73;;;;;;;2.30;100.00;98556.91;10460499;28;20041;-77
2023/01/17 15:41:52;;;;;;;3.58;0.60;;;;;;;2.15;100.00;98561.09;10456891;28;20044;-79
2023/01/17 15:46:53;;;;;;;2.00;0.90;;;;;;;1.90;100.00;98552.69;10478198;28;20132;-78
2023/01/17 15:51:56;;;;;;;7.63;1.15;;;;;;;1.90;100.00;98555.38;10465295;28;20283;-80
2023/01/17 15:57:22;;;;;;;1.52;0.57;;;;;;;1.89;100.00;98576.28;10459468;28;20052;-78
2023/01/17 16:02:29;;;;;;;2.15;0.80;;;;;;;1.72;100.00;98584.50;10460539;28;20044;-78
2023/01/17 16:07:32;;;;;;;1.77;1.03;;;;;;;1.46;100.00;98585.25;10459685;28;20033;-77
2023/01/17 16:12:33;;;;;;;2.17;1.00;;;;;;;1.29;100.00;98593.44;10491475;28;20043;-78
2023/01/17 16:17:33;;;;;;;5.00;1.50;;;;;;;0.94;100.00;98589.94;10500040;28;20036;-78
2023/01/17 16:22:34;;;;;;;7.15;1.30;;;;;;;0.82;100.00;98608.16;10478204;28;20040;-78
2023/01/17 16:27:34;;;;;;;3.87;1.20;;;;;;;0.67;100.00;98610.63;10476885;28;20045;-78
2023/01/17 16:32:35;;;;;;;3.87;1.50;;;;;;;0.56;100.00;98621.28;10479469;28;20037;-78
2023/01/17 16:37:35;;;;;;;3.03;1.50;;;;;;;0.45;100.00;98624.06;10482003;28;20037;-79
2023/01/17 16:42:36;;;;;;;2.50;1.50;;;;;;;0.39;100.00;98623.13;10460066;28;20040;-77
2023/01/17 16:47:36;;;;;;;8.30;1.43;;;;;;;0.37;100.00;98634.22;10479640;28;20650;-78
2023/01/17 16:52:37;;;;;;;4.60;1.90;;;;;;;0.25;100.00;98630.75;10477487;28;20033;-79
2023/01/17 16:57:37;;;;;;;4.70;1.40;;;;;;;0.16;100.00;98624.88;10479887;28;20055;-78
2023/01/17 17:02:39;;;;;;;5.97;1.50;;;;;;;0.13;100.00;98629.97;10483235;28;20100;-79
2023/01/17 17:07:45;;;;;;;5.17;2.00;;;;;;;0.05;100.00;98631.16;10488161;28;20032;-78
2023/01/17 17:12:45;;;;;;;3.15;2.40;;;;;;;0.01;100.00;98630.00;10476453;28;20493;-78
2023/01/17 17:17:46;;;;;;;8.77;2.63;;;;;;;0.02;100.00;98637.03;10439540;28;20037;-78
2023/01/17 17:22:49;;;;;;;6.40;2.80;;;;;;;0.03;100.00;98652.22;10476084;28;20036;-78
2023/01/17 17:27:50;;;;;;;9.07;2.47;;;;;;;-0.13;100.00;98637.56;10470426;28;20043;-77
2023/01/17 17:32:50;;;;;;;7.70;2.67;;;;;;;-0.03;100.00;98658.59;10468740;28;20041;-77
2023/01/17 17:37:51;;;;;;;7.07;2.97;;;;;;;-0.04;100.00;98659.69;10476839;28;20067;-77
2023/01/17 17:42:51;;;;;;;6.83;2.53;;;;;;;0.02;100.00;98669.50;10493576;28;20051;-77
2023/01/17 17:47:52;;;;;;;4.37;2.70;;;;;;;0.08;100.00;98673.97;10495951;28;20048;-77
2023/01/17 17:52:52;;;;;;;8.87;3.23;;;;;;;0.20;100.00;98682.88;10466056;28;20028;-77
2023/01/17 17:57:53;;;;;;;4.13;2.30;;;;;;;0.22;100.00;98676.41;10495731;28;20041;-76
2023/01/17 18:02:53;;;;;;;5.20;3.45;;;;;;;0.07;100.00;98658.81;10492687;28;20056;-78
2023/01/17 18:07:53;;;;;;;6.30;2.40;;;;;;;0.16;100.00;98686.31;10494768;28;20051;-78
2023/01/17 18:12:54;;;;;;;6.10;3.00;;;;;;;0.10;100.00;98688.06;10497543;28;20105;-78
2023/01/17 18:17:55;;;;;;;7.10;3.60;;;;;;;0.04;100.00;98678.22;10496897;28;20674;-78
2023/01/17 18:22:55;;;;;;;8.67;3.30;;;;;;;-0.02;100.00;98690.00;10496239;28;20048;-78
2023/01/17 18:27:55;;;;;;;5.80;2.90;;;;;;;-0.05;100.00;98679.66;10494693;28;20036;-77
2023/01/17 18:32:56;;;;;;;7.00;3.40;;;;;;;-0.04;100.00;98697.53;10495248;28;20500;-78
2023/01/17 18:37:57;;;;;;;5.03;3.10;;;;;;;-0.09;100.00;98697.41;10465832;28;20497;-78
2023/01/17 18:42:58;;;;;;;4.77;3.57;;;;;;;-0.15;100.00;98701.06;10463142;28;20092;-78
2023/01/17 18:48:01;;;;;;;5.37;3.23;;;;;;;-0.17;100.00;98714.84;10489717;28;20047;-78
2023/01/17 18:53:01;;;;;;;10.23;3.13;;;;;;;-0.20;100.00;98718.03;10500888;28;20033;-77
2023/01/17 18:58:02;;;;;;;7.53;3.37;;;;;;;-0.35;100.00;98707.69;10459769;28;20037;-77
2023/01/17 19:03:05;;;;;;;5.53;3.57;;;;;;;-0.59;100.00;98679.03;10488899;28;20040;-72
2023/01/17 19:08:05;;;;;;;7.40;2.70;;;;;;;-0.33;100.00;98729.06;10500408;28;20041;-77
2023/01/17 19:13:06;;;;;;;5.73;3.10;;;;;;;-0.29;100.00;98739.19;10473977;28;20033;-77
2023/01/17 19:18:06;;;;;;;7.10;3.13;;;;;;;-0.33;100.00;98750.69;10460243;28;20049;-79
2023/01/17 19:23:06;;;;;;;6.13;3.30;;;;;;;-0.40;100.00;98764.34;10467577;28;20044;-79
2023/01/17 19:28:07;;;;;;;7.43;3.63;;;;;;;-0.59;100.00;98738.50;10501760;28;20044;-79
2023/01/17 19:33:08;;;;;;;5.83;3.20;;;;;;;-0.44;100.00;98780.19;10483632;28;20025;-79
2023/01/17 19:38:08;;;;;;;4.17;2.77;;;;;;;-0.94;100.00;98704.97;10477176;28;20043;-78
2023/01/17 19:43:10;;;;;;;5.50;2.93;;;;;;;-0.47;100.00;98785.28;10502699;28;20094;-79
2023/01/17 19:48:13;;;;;;;6.63;3.33;;;;;;;-0.49;100.00;98795.50;10499049;28;20067;-80
2023/01/17 19:53:13;;;;;;;6.90;3.60;;;;;;;-0.54;100.00;98793.47;10460536;28;20079;-79
2023/01/17 19:58:14;;;;;;;5.93;3.60;;;;;;;-0.56;100.00;98808.28;10451322;28;20094;-78
2023/01/17 20:03:14;;;;;;;7.30;3.20;;;;;;;-0.58;100.00;98789.59;10483587;28;20041;-79
2023/01/17 20:08:15;;;;;;;4.10;3.10;;;;;;;-0.57;100.00;98791.25;10499830;28;20044;-79
2023/01/17 20:13:15;;;;;;;3.60;2.80;;;;;;;-0.56;100.00;98798.28;10483300;28;20041;-79
2023/01/17 20:18:16;;;;;;;5.90;3.50;;;;;;;-0.59;100.00;98792.53;10458018;28;20048;-79
2023/01/17 20:23:16;;;;;;;4.53;2.70;;;;;;;-0.66;100.00;98792.66;10492010;28;20033;-75
2023/01/17 20:28:16;;;;;;;5.33;3.03;;;;;;;-0.72;100.00;98799.00;10501263;28;20040;-79
2023/01/17 20:33:17;;;;;;;5.43;2.90;;;;;;;-0.74;100.00;98791.09;10490365;28;20083;-79
2023/01/17 20:38:18;;;;;;;5.57;2.83;;;;;;;-0.76;100.00;98798.63;10477183;28;20039;-78
2023/01/17 20:43:18;;;;;;;6.47;3.90;;;;;;;-0.76;100.00;98809.44;10466317;28;20044;-79
2023/01/17 20:48:20;;;;;;;7.00;3.73;;;;;;;-0.80;100.00;98805.53;10489043;28;20035;-79
2023/01/17 20:53:22;;;;;;;5.40;3.60;;;;;;;-0.84;100.00;98802.47;10485884;28;20079;-79
2023/01/17 20:58:22;;;;;;;7.53;3.20;;;;;;;-0.91;100.00;98806.31;10499275;28;20052;-79
2023/01/17 21:03:23;;;;;;;5.50;3.20;;;;;;;-0.89;100.00;98807.75;10481480;28;20508;-79
2023/01/17 21:08:24;;;;;;;7.07;3.70;;;;;;;-0.93;100.00;98813.81;10497375;28;20036;-78
2023/01/17 21:13:24;;;;;;;7.60;3.80;;;;;;;-0.92;100.00;98812.78;10498988;28;20270;-78
2023/01/17 21:18:25;;;;;;;4.73;3.00;;;;;;;-0.91;100.00;98815.25;10498663;28;20052;-79
2023/01/17 21:23:28;;;;;;;4.77;2.70;;;;;;;-0.82;100.00;98829.25;10479514;28;20385;-80
2023/01/17 21:28:30;;;;;;;5.20;3.07;;;;;;;-0.83;100.00;98831.16;10496844;28;20075;-79
2023/01/17 21:33:30;;;;;;;5.67;3.90;;;;;;;-0.85;100.00;98832.41;10463692;28;20040;-79
2023/01/17 21:38:31;;;;;;;4.53;2.93;;;;;;;-0.89;100.00;98831.22;10455349;28;20041;-78
2023/01/17 21:43:32;;;;;;;5.13;3.93;;;;;;;-1.01;100.00;98839.31;10448469;28;20119;-78
2023/01/17 21:48:32;;;;;;;4.70;2.80;;;;;;;-0.95;100.00;98851.03;10497369;28;20063;-78
2023/01/17 21:53:34;;;;;;;5.57;3.17;;;;;;;-0.99;100.00;98845.31;10490529;28;20503;-73
2023/01/17 21:58:43;;;;;;;4.20;3.00;;;;;;;-1.11;100.00;98839.84;10491896;28;20052;-75
2023/01/17 22:03:47;;;;;;;3.70;2.70;;;;;;;-1.34;100.00;98824.34;10472422;28;20049;-79
2023/01/17 22:08:47;;;;;;;3.97;2.83;;;;;;;-1.10;100.00;98844.19;10450760;28;20033;-78
2023/01/17 22:13:48;;;;;;;4.70;3.23;;;;;;;-1.04;100.00;98851.38;10464486;28;20045;-79
2023/01/17 22:18:48;;;;;;;4.40;2.67;;;;;;;-1.05;100.00;98847.03;10462622;28;20029;-79
2023/01/17 22:23:53;;;;;;;4.43;2.73;;;;;;;-0.98;100.00;98854.22;10488859;28;20040;-78
2023/01/17 22:28:53;;;;;;;4.87;3.00;;;;;;;-1.07;100.00;98832.94;10496845;28;20043;-79
2023/01/17 22:33:56;;;;;;;4.37;2.73;;;;;;;-0.92;100.00;98847.91;10470390;28;20047;-78
2023/01/17 22:38:56;;;;;;;6.30;2.50;;;;;;;-0.98;100.00;98854.22;10503602;28;20052;-78
2023/01/17 22:43:57;;;;;;;4.33;3.00;;;;;;;-1.02;100.00;98846.56;10502579;28;20040;-78
2023/01/17 22:48:58;;;;;;;10.70;3.67;;;;;;;-1.03;100.00;98858.44;10486214;28;20063;-78
2023/01/17 22:53:59;;;;;;;5.97;2.97;;;;;;;-1.08;100.00;98858.28;10473019;28;20029;-78
2023/01/17 22:58:59;;;;;;;5.80;3.00;;;;;;;-1.16;100.00;98874.78;10490716;28;20033;-79
2023/01/17 23:04:01;;;;;;;4.13;3.00;;;;;;;-1.27;100.00;98862.06;10473349;28;20063;-78
2023/01/17 23:09:07;;;;;;;5.60;2.70;;;;;;;-1.29;100.00;98873.09;10501671;28;20040;-77
2023/01/17 23:14:10;;;;;;;8.30;3.08;;;;;;;-1.39;100.00;98885.47;10501493;28;20036;-78
2023/01/17 23:19:22;;;;;;;5.07;2.97;;;;;;;-1.54;100.00;98888.53;10502096;28;20037;-77
2023/01/17 23:24:23;;;;;;;4.53;2.80;;;;;;;-1.70;100.00;98885.38;10503726;28;20044;-77
2023/01/17 23:29:24;;;;;;;5.90;3.97;;;;;;;-1.66;100.00;98901.94;10501795;28;20116;-77
2023/01/17 23:34:24;;;;;;;9.30;3.47;;;;;;;-1.63;100.00;98907.72;10484608;28;20048;-77
2023/01/17 23:39:25;;;;;;;4.30;3.37;;;;;;;-1.65;100.00;98903.59;10502927;28;20039;-77
2023/01/17 23:44:30;;;;;;;7.97;4.70;;;;;;;-1.67;100.00;98900.31;10489840;28;20033;-77
2023/01/17 23:49:30;;;;;;;7.03;3.90;;;;;;;-1.74;100.00;98910.31;10502525;28;20028;-77
2023/01/17 23:54:31;;;;;;;4.87;4.10;;;;;;;-1.72;100.00;98908.22;10484332;28;20412;-77
2023/01/17 23:59:31;;;;;;;7.13;4.23;;;;;;;-1.90;100.00;98890.13;10502299;28;20033;-77
